Vb Bretagne — FMHX — position and weather

sailwx.info

Track history (hours):
 
Tides and Currents Weather Stations Pressure Air Temp Water Temp Dewpoint Dewpoint Depression Visibility Wind Speed Wind Dir Waves Ship Positions

Vb Bretagne

Last reported at 2015-Sep-01 00:25 UTC. Time now 2015-Sep-02 00:24 UTC.
Position N 47°17' W 002°10'.

Length 32 m; draft 4.1 m.

Type: Tug. MMSI: 228234700.

Date/timePositionNaut miles runAvg speedWind from/ knotsBaromVisibWave heightAir tempDewpointWater temp
2015-Sep-01 00:25N 47°17' W 002°10'3 3.1
2015-Aug-31 23:23N 47°18' W 002°06'0 0.0
2015-Aug-31 22:03N 47°18' W 002°06'3 0.3
2015-Aug-31 09:20N 47°17' W 002°10'3 2.9
2015-Aug-31 08:18N 47°18' W 002°07'0 0.0
2015-Aug-31 07:17N 47°18' W 002°07'0 0.0
2015-Aug-31 06:08N 47°18' W 002°07'0 0.0
2015-Aug-31 05:33N 47°18' W 002°07'2 1.5
2015-Aug-31 04:33N 47°18' W 002°09'1 0.9
2015-Aug-31 03:33N 47°18' W 002°07'3 3.3
2015-Aug-31 02:32N 47°16' W 002°11'0 0.5
2015-Aug-31 01:32N 47°16' W 002°12'0 0.0
2015-Aug-31 00:27N 47°16' W 002°12'0 0.0
2015-Aug-30 23:16N 47°16' W 002°12'0 0.0
2015-Aug-30 22:30N 47°16' W 002°12'0 0.0
2015-Aug-30 21:24N 47°16' W 002°12'0 0.0
2015-Aug-30 20:27N 47°16' W 002°12'2 0.5
2015-Aug-30 17:33N 47°17' W 002°10'4 3.7
2015-Aug-30 16:33N 47°18' W 002°05'5 1.2
2015-Aug-30 12:08N 47°16' W 002°12'0 0.0
2015-Aug-30 11:30N 47°16' W 002°12'0 0.0
2015-Aug-30 10:33N 47°16' W 002°12'0 0.0
2015-Aug-30 09:33N 47°16' W 002°12'0 0.0
2015-Aug-30 08:27N 47°16' W 002°12'0 0.0
2015-Aug-30 07:29N 47°16' W 002°12'3 3.1
2015-Aug-30 06:33N 47°18' W 002°09'0 0.0
2015-Aug-30 05:33N 47°18' W 002°09'0 0.0
2015-Aug-30 04:33N 47°18' W 002°09'0 0.0
2015-Aug-30 03:33N 47°18' W 002°09'0 0.0
2015-Aug-30 02:33N 47°18' W 002°09'0 0.0
2015-Aug-30 01:33N 47°18' W 002°09'0 0.0
2015-Aug-30 00:34N 47°18' W 002°09'0 0.0
2015-Aug-29 23:33N 47°18' W 002°09'0 0.0
2015-Aug-29 22:33N 47°18' W 002°09'2 2.1
2015-Aug-29 21:34N 47°18' W 002°06'2 1.9
2015-Aug-29 20:29N 47°18' W 002°09'0 0.0
2015-Aug-29 19:33N 47°18' W 002°09'0 0.0
2015-Aug-29 14:07N 47°18' W 002°09'0 0.0
2015-Aug-29 13:25N 47°18' W 002°09'0 0.1
2015-Aug-29 11:24N 47°18' W 002°09'0 0.2
2015-Aug-29 10:33N 47°18' W 002°09'0 0.0
2015-Aug-29 09:33N 47°18' W 002°09'0 0.0
2015-Aug-29 08:33N 47°18' W 002°09'1 1.3
2015-Aug-29 07:33N 47°17' W 002°10'2 0.4
2015-Aug-29 03:15N 47°16' W 002°12'4 4.5
2015-Aug-29 02:29N 47°18' W 002°08'4 0.7
2015-Aug-28 21:23N 47°16' W 002°12'0 0.0
2015-Aug-28 20:32N 47°16' W 002°12'0 0.0
2015-Aug-28 16:30N 47°16' W 002°12'4 3.0
2015-Aug-28 15:16N 47°18' W 002°08'4 0.9
2015-Aug-28 11:24N 47°16' W 002°12'4 4.7
2015-Aug-28 10:32N 47°18' W 002°07'2 2.1
2015-Aug-28 09:32N 47°17' W 002°10'1 0.0
2015-Aug-27 03:30N 47°18' W 002°09'3 0.9
2015-Aug-27 00:30N 47°16' W 002°12'0 0.0
2015-Aug-26 20:26N 47°16' W 002°12'0 0.0
2015-Aug-26 19:28N 47°16' W 002°12'0 0.0
2015-Aug-26 17:08N 47°16' W 002°12'0 0.0
2015-Aug-26 07:28N 47°16' W 002°12'0 0.0
2015-Aug-26 06:31N 47°16' W 002°12'3 0.1
2015-Aug-25 03:20N 47°18' W 002°09'0 0.0
2015-Aug-25 02:21N 47°18' W 002°09'0 0.0
2015-Aug-25 01:30N 47°18' W 002°09'3 0.1
2015-Aug-23 07:30N 47°18' W 002°05'5 0.6
2015-Aug-22 23:14N 47°16' W 002°12'0 0.0
2015-Aug-22 13:30N 47°16' W 002°12'0 0.0
2015-Aug-22 09:28N 47°16' W 002°12'0 0.0
2015-Aug-22 07:30N 47°16' W 002°12'2 2.7
2015-Aug-22 06:33N 47°18' W 002°09'2 2.5
2015-Aug-22 05:33N 47°16' W 002°12'0 0.0
2015-Aug-22 04:33N 47°16' W 002°12'0 0.0
2015-Aug-22 03:34N 47°16' W 002°12'0 0.0
2015-Aug-22 02:34N 47°16' W 002°12'0 0.0
2015-Aug-22 01:33N 47°16' W 002°12'0 0.0
2015-Aug-22 00:31N 47°16' W 002°12'  
Track history (hours):
 
Tides and Currents Weather Stations Pressure Air Temp Water Temp Dewpoint Dewpoint Depression Visibility Wind Speed Wind Dir Waves Ship Positions

Vb Bretagne

Last reported at 2015-Sep-01 00:25 UTC. Time now 2015-Sep-02 00:24 UTC.
Position N 47°17' W 002°10'.

Length 32 m; draft 4.1 m.

Type: Tug. MMSI: 228234700.

Date/timePositionNaut miles runAvg speedWind from/ knotsBaromVisibWave heightAir tempDewpointWater temp
2015-Sep-01 00:25N 47°17' W 002°10'3 3.1
2015-Aug-31 23:23N 47°18' W 002°06'0 0.0
2015-Aug-31 22:03N 47°18' W 002°06'3 0.3
2015-Aug-31 09:20N 47°17' W 002°10'3 2.9
2015-Aug-31 08:18N 47°18' W 002°07'0 0.0
2015-Aug-31 07:17N 47°18' W 002°07'0 0.0
2015-Aug-31 06:08N 47°18' W 002°07'0 0.0
2015-Aug-31 05:33N 47°18' W 002°07'2 1.5
2015-Aug-31 04:33N 47°18' W 002°09'1 0.9
2015-Aug-31 03:33N 47°18' W 002°07'3 3.3
2015-Aug-31 02:32N 47°16' W 002°11'0 0.5
2015-Aug-31 01:32N 47°16' W 002°12'0 0.0
2015-Aug-31 00:27N 47°16' W 002°12'0 0.0
2015-Aug-30 23:16N 47°16' W 002°12'0 0.0
2015-Aug-30 22:30N 47°16' W 002°12'0 0.0
2015-Aug-30 21:24N 47°16' W 002°12'0 0.0
2015-Aug-30 20:27N 47°16' W 002°12'2 0.5
2015-Aug-30 17:33N 47°17' W 002°10'4 3.7
2015-Aug-30 16:33N 47°18' W 002°05'5 1.2
2015-Aug-30 12:08N 47°16' W 002°12'0 0.0
2015-Aug-30 11:30N 47°16' W 002°12'0 0.0
2015-Aug-30 10:33N 47°16' W 002°12'0 0.0
2015-Aug-30 09:33N 47°16' W 002°12'0 0.0
2015-Aug-30 08:27N 47°16' W 002°12'0 0.0
2015-Aug-30 07:29N 47°16' W 002°12'3 3.1
2015-Aug-30 06:33N 47°18' W 002°09'0 0.0
2015-Aug-30 05:33N 47°18' W 002°09'0 0.0
2015-Aug-30 04:33N 47°18' W 002°09'0 0.0
2015-Aug-30 03:33N 47°18' W 002°09'0 0.0
2015-Aug-30 02:33N 47°18' W 002°09'0 0.0
2015-Aug-30 01:33N 47°18' W 002°09'0 0.0
2015-Aug-30 00:34N 47°18' W 002°09'0 0.0
2015-Aug-29 23:33N 47°18' W 002°09'0 0.0
2015-Aug-29 22:33N 47°18' W 002°09'2 2.1
2015-Aug-29 21:34N 47°18' W 002°06'2 1.9
2015-Aug-29 20:29N 47°18' W 002°09'0 0.0
2015-Aug-29 19:33N 47°18' W 002°09'0 0.0
2015-Aug-29 14:07N 47°18' W 002°09'0 0.0
2015-Aug-29 13:25N 47°18' W 002°09'0 0.1
2015-Aug-29 11:24N 47°18' W 002°09'0 0.2
2015-Aug-29 10:33N 47°18' W 002°09'0 0.0
2015-Aug-29 09:33N 47°18' W 002°09'0 0.0
2015-Aug-29 08:33N 47°18' W 002°09'1 1.3
2015-Aug-29 07:33N 47°17' W 002°10'2 0.4
2015-Aug-29 03:15N 47°16' W 002°12'4 4.5
2015-Aug-29 02:29N 47°18' W 002°08'4 0.7
2015-Aug-28 21:23N 47°16' W 002°12'0 0.0
2015-Aug-28 20:32N 47°16' W 002°12'0 0.0
2015-Aug-28 16:30N 47°16' W 002°12'4 3.0
2015-Aug-28 15:16N 47°18' W 002°08'4 0.9
2015-Aug-28 11:24N 47°16' W 002°12'4 4.7
2015-Aug-28 10:32N 47°18' W 002°07'2 2.1
2015-Aug-28 09:32N 47°17' W 002°10'1 0.0
2015-Aug-27 03:30N 47°18' W 002°09'3 0.9
2015-Aug-27 00:30N 47°16' W 002°12'0 0.0
2015-Aug-26 20:26N 47°16' W 002°12'0 0.0
2015-Aug-26 19:28N 47°16' W 002°12'0 0.0
2015-Aug-26 17:08N 47°16' W 002°12'0 0.0
2015-Aug-26 07:28N 47°16' W 002°12'0 0.0
2015-Aug-26 06:31N 47°16' W 002°12'3 0.1
2015-Aug-25 03:20N 47°18' W 002°09'0 0.0
2015-Aug-25 02:21N 47°18' W 002°09'0 0.0
2015-Aug-25 01:30N 47°18' W 002°09'3 0.1
2015-Aug-23 07:30N 47°18' W 002°05'5 0.6
2015-Aug-22 23:14N 47°16' W 002°12'0 0.0
2015-Aug-22 13:30N 47°16' W 002°12'0 0.0
2015-Aug-22 09:28N 47°16' W 002°12'0 0.0
2015-Aug-22 07:30N 47°16' W 002°12'2 2.7
2015-Aug-22 06:33N 47°18' W 002°09'2 2.5
2015-Aug-22 05:33N 47°16' W 002°12'0 0.0
2015-Aug-22 04:33N 47°16' W 002°12'0 0.0
2015-Aug-22 03:34N 47°16' W 002°12'0 0.0
2015-Aug-22 02:34N 47°16' W 002°12'0 0.0
2015-Aug-22 01:33N 47°16' W 002°12'0 0.0
2015-Aug-22 00:31N 47°16' W 002°12'  

Dump ship's entire track history